Time;durP1;ratioP1;P1;durP2;ratioP2;P2;SDS_P1;SDS_P2;PMS_P1;PMS_P2;Temp;Humidity;BMP_temperature;BMP_pressure;BME280_temperature;BME280_humidity;BME280_pressure;Samples;Min_cycle;Max_cycle;Signal;HPM_P1;HPM_P2
2023/11/09 00:01:37;;;;;;;26.10;12.45;;;;;;;;;;6170516;23;20426;-59
2023/11/09 00:04:31;;;;;;;25.25;11.93;;;;;;;;;;6170329;23;20025;-59
2023/11/09 00:07:21;;;;;;;24.65;12.27;;;;;;;;;;6173448;23;20043;-59
2023/11/09 00:10:12;;;;;;;24.30;11.60;;;;;;;;;;6172414;23;20072;-62
2023/11/09 00:12:59;;;;;;;31.30;9.52;;;;;;;;;;6171817;23;20021;-61
2023/11/09 00:15:55;;;;;;;23.73;10.43;;;;;;;;;;6173265;23;20079;-60
2023/11/09 00:18:23;;;;;;;20.00;9.82;;;;;;;;;;6172802;23;20108;-60
2023/11/09 00:20:51;;;;;;;18.88;9.73;;;;;;;;;;6173648;23;20036;-60
2023/11/09 00:23:25;;;;;;;19.02;7.75;;;;;;;;;;6173750;23;20039;-60
2023/11/09 00:25:52;;;;;;;23.75;11.15;;;;;;;;;;6172634;23;20057;-60
2023/11/09 00:28:50;;;;;;;19.63;8.95;;;;;;;;;;6172831;23;20021;-52
2023/11/09 00:31:33;;;;;;;17.15;8.52;;;;;;;;;;6172579;23;20029;-62
2023/11/09 00:34:28;;;;;;;19.98;9.40;;;;;;;;;;6173649;23;20025;-53
2023/11/09 00:37:15;;;;;;;18.00;8.95;;;;;;;;;;6171980;23;20029;-54
2023/11/09 00:40:10;;;;;;;15.43;7.20;;;;;;;;;;6174581;23;20025;-49
2023/11/09 00:42:57;;;;;;;17.05;7.68;;;;;;;;;;6173543;23;20021;-49
2023/11/09 00:45:51;;;;;;;23.33;8.07;;;;;;;;;;6172235;23;20100;-54
2023/11/09 00:48:45;;;;;;;21.33;7.07;;;;;;;;;;6172481;23;20099;-60
2023/11/09 00:51:38;;;;;;;15.73;8.10;;;;;;;;;;6173965;23;20371;-60
2023/11/09 00:54:26;;;;;;;19.58;9.32;;;;;;;;;;6173485;23;20090;-60
2023/11/09 00:57:24;;;;;;;17.90;8.13;;;;;;;;;;6176205;23;20028;-60
2023/11/09 01:00:10;;;;;;;15.55;9.00;;;;;;;;;;6171870;23;20052;-60
2023/11/09 01:03:04;;;;;;;20.55;7.75;;;;;;;;;;6170564;23;20029;-60
2023/11/09 01:05:53;;;;;;;14.43;7.03;;;;;;;;;;6173150;23;20812;-50
2023/11/09 01:08:51;;;;;;;20.67;9.27;;;;;;;;;;6170086;23;20029;-62
2023/11/09 01:11:40;;;;;;;18.75;8.35;;;;;;;;;;6173306;23;20506;-62
2023/11/09 01:14:39;;;;;;;13.90;8.15;;;;;;;;;;6172810;23;20515;-62
2023/11/09 01:17:27;;;;;;;17.65;7.20;;;;;;;;;;6172296;23;20099;-62
2023/11/09 01:20:21;;;;;;;16.33;7.38;;;;;;;;;;6171489;23;20021;-62
2023/11/09 01:23:09;;;;;;;14.80;6.97;;;;;;;;;;6171914;23;20075;-62
2023/11/09 01:26:01;;;;;;;11.85;6.85;;;;;;;;;;6173771;23;20021;-61
2023/11/09 01:28:48;;;;;;;19.25;6.68;;;;;;;;;;6172820;23;20088;-62
2023/11/09 01:31:42;;;;;;;14.88;6.85;;;;;;;;;;6171089;23;20028;-63
2023/11/09 01:34:29;;;;;;;15.43;6.80;;;;;;;;;;6171044;23;20395;-63
2023/11/09 01:37:23;;;;;;;19.05;6.95;;;;;;;;;;6172138;23;20024;-62
2023/11/09 01:40:11;;;;;;;13.70;6.75;;;;;;;;;;6172575;23;20634;-62
2023/11/09 01:43:12;;;;;;;12.98;5.53;;;;;;;;;;6169824;23;20027;-60
2023/11/09 01:45:59;;;;;;;21.20;7.50;;;;;;;;;;6172070;23;20032;-62
2023/11/09 01:49:01;;;;;;;22.10;6.78;;;;;;;;;;6170924;23;20032;-62
2023/11/09 01:51:29;;;;;;;18.48;6.80;;;;;;;;;;6172344;23;20463;-62
2023/11/09 01:54:23;;;;;;;12.55;5.72;;;;;;;;;;6172501;23;20021;-62
2023/11/09 01:57:11;;;;;;;16.33;6.18;;;;;;;;;;6171150;23;20025;-62
2023/11/09 02:00:06;;;;;;;11.35;5.45;;;;;;;;;;6170220;23;20032;-62
2023/11/09 02:02:54;;;;;;;13.77;5.68;;;;;;;;;;6170971;23;20021;-62
2023/11/09 02:05:49;;;;;;;13.85;5.43;;;;;;;;;;6173181;23;20079;-53
2023/11/09 02:08:34;;;;;;;14.45;6.40;;;;;;;;;;6172195;23;20079;-53
2023/11/09 02:11:28;;;;;;;22.58;6.00;;;;;;;;;;6171698;23;20025;-54
2023/11/09 02:14:23;;;;;;;13.35;5.32;;;;;;;;;;6170903;23;20025;-54
2023/11/09 02:17:18;;;;;;;17.77;6.82;;;;;;;;;;6173412;23;20025;-52
2023/11/09 02:20:06;;;;;;;22.55;6.50;;;;;;;;;;6172530;23;20028;-52
2023/11/09 02:23:01;;;;;;;20.75;7.20;;;;;;;;;;6168623;23;20032;-59
2023/11/09 02:25:49;;;;;;;23.85;7.45;;;;;;;;;;6170991;23;20021;-59
2023/11/09 02:28:46;;;;;;;13.52;6.20;;;;;;;;;;6170518;23;20021;-62
2023/11/09 02:31:32;;;;;;;22.92;6.32;;;;;;;;;;6169935;23;20040;-59
2023/11/09 02:34:27;;;;;;;23.08;7.50;;;;;;;;;;6169610;23;20076;-59
2023/11/09 02:37:13;;;;;;;20.77;7.03;;;;;;;;;;6169283;23;20103;-54
2023/11/09 02:40:08;;;;;;;20.40;5.93;;;;;;;;;;6171650;23;20095;-59
2023/11/09 02:42:55;;;;;;;29.05;7.32;;;;;;;;;;6171458;23;20608;-59
2023/11/09 02:45:48;;;;;;;17.92;7.47;;;;;;;;;;6173735;23;20100;-60
2023/11/09 02:48:42;;;;;;;29.95;7.78;;;;;;;;;;6169432;23;20686;-60
2023/11/09 02:51:35;;;;;;;20.58;6.97;;;;;;;;;;6172411;23;20387;-59
2023/11/09 02:54:22;;;;;;;13.90;6.50;;;;;;;;;;6172538;23;20032;-60
2023/11/09 02:57:16;;;;;;;14.65;6.50;;;;;;;;;;6171011;23;20083;-62
2023/11/09 03:00:05;;;;;;;17.98;6.55;;;;;;;;;;6170037;23;20025;-59
2023/11/09 03:02:57;;;;;;;18.75;6.05;;;;;;;;;;6175972;23;20334;-59
2023/11/09 03:05:44;;;;;;;15.93;6.88;;;;;;;;;;6174691;23;20080;-59
2023/11/09 03:08:38;;;;;;;22.17;6.82;;;;;;;;;;6175168;23;20025;-58
2023/11/09 03:11:32;;;;;;;16.80;6.32;;;;;;;;;;6175799;23;20659;-59
2023/11/09 03:14:19;;;;;;;18.10;6.93;;;;;;;;;;6174708;23;20017;-65
2023/11/09 03:17:13;;;;;;;18.98;7.32;;;;;;;;;;6176941;23;20076;-58
2023/11/09 03:20:01;;;;;;;19.15;6.40;;;;;;;;;;6171710;23;20029;-59
2023/11/09 03:22:54;;;;;;;13.70;6.50;;;;;;;;;;6175111;23;20032;-59
2023/11/09 03:25:41;;;;;;;12.95;7.05;;;;;;;;;;6175219;23;20723;-60
2023/11/09 03:28:37;;;;;;;17.60;5.80;;;;;;;;;;6171970;23;20017;-60
2023/11/09 03:31:29;;;;;;;22.45;6.32;;;;;;;;;;6172835;23;20021;-60
2023/11/09 03:34:23;;;;;;;17.35;6.30;;;;;;;;;;6176414;23;20025;-55
2023/11/09 03:37:17;;;;;;;13.13;5.70;;;;;;;;;;6175005;23;20075;-59
2023/11/09 03:40:06;;;;;;;18.15;5.65;;;;;;;;;;6177416;23;20072;-60
2023/11/09 03:42:58;;;;;;;9.35;5.05;;;;;;;;;;6176927;23;20095;-59
2023/11/09 03:45:46;;;;;;;8.48;4.63;;;;;;;;;;6176557;23;20021;-60
2023/11/09 03:48:46;;;;;;;14.88;4.43;;;;;;;;;;6175192;23;20032;-60
2023/11/09 03:51:40;;;;;;;13.30;4.78;;;;;;;;;;6174722;23;20732;-61
2023/11/09 03:54:33;;;;;;;9.80;4.88;;;;;;;;;;6174255;23;20047;-67
2023/11/09 03:57:20;;;;;;;10.18;4.60;;;;;;;;;;6175233;23;20867;-66
2023/11/09 04:00:14;;;;;;;7.22;4.38;;;;;;;;;;6174531;23;20029;-65
2023/11/09 04:03:01;;;;;;;10.88;4.88;;;;;;;;;;6175704;23;20017;-66
2023/11/09 04:05:55;;;;;;;7.00;4.10;;;;;;;;;;6173920;23;20033;-65
2023/11/09 04:08:43;;;;;;;13.02;4.63;;;;;;;;;;6174782;23;20025;-65
2023/11/09 04:11:38;;;;;;;7.78;4.75;;;;;;;;;;6175858;23;20021;-62
2023/11/09 04:14:24;;;;;;;8.80;4.22;;;;;;;;;;6172765;23;20749;-58
2023/11/09 04:17:18;;;;;;;9.18;4.18;;;;;;;;;;6172994;23;20080;-58
2023/11/09 04:20:08;;;;;;;6.18;3.80;;;;;;;;;;6173215;23;20021;-59
2023/11/09 04:23:02;;;;;;;11.25;4.00;;;;;;;;;;6172559;23;20462;-58
2023/11/09 04:25:56;;;;;;;13.95;4.47;;;;;;;;;;6151881;23;20059;-60
2023/11/09 04:29:08;;;;;;;5.88;4.00;;;;;;;;;;6172428;23;20047;-51
2023/11/09 04:32:00;;;;;;;7.40;3.67;;;;;;;;;;6171851;23;20018;-58
2023/11/09 04:34:53;;;;;;;5.30;3.38;;;;;;;;;;6171880;23;20021;-58
2023/11/09 04:37:44;;;;;;;5.60;3.10;;;;;;;;;;6172016;23;20025;-58
2023/11/09 04:40:36;;;;;;;6.00;2.90;;;;;;;;;;6171968;23;20029;-58
2023/11/09 04:43:23;;;;;;;5.93;2.63;;;;;;;;;;6171171;23;20025;-59
2023/11/09 04:46:18;;;;;;;4.65;2.95;;;;;;;;;;6173170;23;20017;-54
2023/11/09 04:49:11;;;;;;;3.45;2.80;;;;;;;;;;6171750;23;20049;-64
2023/11/09 04:52:09;;;;;;;5.18;2.80;;;;;;;;;;6174295;23;20020;-65
2023/11/09 04:54:44;;;;;;;6.40;2.97;;;;;;;;;;6171947;23;20147;-64
2023/11/09 05:08:48;;;;;;;7.60;2.70;;;;;;;;;;6173094;23;20032;-60
2023/11/09 05:11:42;;;;;;;5.22;2.30;;;;;;;;;;6170684;23;20072;-61
2023/11/09 05:14:36;;;;;;;3.22;2.17;;;;;;;;;;6172942;23;20024;-60
2023/11/09 05:17:23;;;;;;;2.95;2.00;;;;;;;;;;6172692;23;20021;-61
2023/11/09 05:20:17;;;;;;;3.53;2.05;;;;;;;;;;6172823;23;20024;-59
2023/11/09 05:23:04;;;;;;;3.20;2.03;;;;;;;;;;6172284;23;20025;-59
2023/11/09 05:25:58;;;;;;;2.85;1.60;;;;;;;;;;6171379;23;20025;-63
2023/11/09 05:28:46;;;;;;;2.88;1.88;;;;;;;;;;6171615;23;20025;-63
2023/11/09 05:31:42;;;;;;;3.78;1.70;;;;;;;;;;6170071;23;20047;-63
2023/11/09 05:34:26;;;;;;;4.95;1.88;;;;;;;;;;6171551;23;20076;-63
2023/11/09 05:37:20;;;;;;;2.03;1.60;;;;;;;;;;6174533;23;20128;-62
2023/11/09 05:40:08;;;;;;;4.95;1.80;;;;;;;;;;6174095;23;20032;-63
2023/11/09 05:43:02;;;;;;;1.55;1.45;;;;;;;;;;6172190;23;20063;-65
2023/11/09 05:45:29;;;;;;;1.63;1.30;;;;;;;;;;6172168;23;20451;-63
2023/11/09 05:48:29;;;;;;;1.27;1.17;;;;;;;;;;6170200;23;20111;-62
2023/11/09 05:51:23;;;;;;;2.50;1.30;;;;;;;;;;6170991;23;20178;-62
2023/11/09 05:54:17;;;;;;;2.47;1.20;;;;;;;;;;6170765;23;20025;-62
2023/11/09 05:57:03;;;;;;;2.95;1.10;;;;;;;;;;6168943;23;20092;-63
2023/11/09 05:59:57;;;;;;;4.18;1.08;;;;;;;;;;6170549;23;20083;-60
2023/11/09 06:02:44;;;;;;;1.42;0.88;;;;;;;;;;6173254;23;20095;-60
2023/11/09 06:05:39;;;;;;;1.73;1.20;;;;;;;;;;6173294;23;20108;-60
2023/11/09 06:08:25;;;;;;;1.05;0.93;;;;;;;;;;6172905;23;20028;-60
2023/11/09 06:11:20;;;;;;;1.10;1.00;;;;;;;;;;6173842;23;20079;-60
2023/11/09 06:14:07;;;;;;;2.65;0.65;;;;;;;;;;6174660;23;20399;-61
2023/11/09 06:17:01;;;;;;;1.13;1.02;;;;;;;;;;6174046;23;20017;-60
2023/11/09 06:19:47;;;;;;;1.08;1.00;;;;;;;;;;6172189;23;20477;-60
2023/11/09 06:22:41;;;;;;;0.85;0.85;;;;;;;;;;6173730;23;20091;-62
2023/11/09 06:25:28;;;;;;;1.08;0.90;;;;;;;;;;6174187;23;20029;-62
2023/11/09 06:28:23;;;;;;;1.02;0.90;;;;;;;;;;6174650;23;20033;-62
2023/11/09 06:31:16;;;;;;;1.60;0.80;;;;;;;;;;6175276;23;20071;-62
2023/11/09 06:34:12;;;;;;;1.15;0.70;;;;;;;;;;6173334;23;20024;-62
2023/11/09 06:36:57;;;;;;;1.10;1.00;;;;;;;;;;6172312;23;20149;-63
2023/11/09 06:39:48;;;;;;;0.80;0.80;;;;;;;;;;6171949;23;20029;-62
2023/11/09 06:42:39;;;;;;;1.73;1.05;;;;;;;;;;6173891;23;20025;-62
2023/11/09 06:45:27;;;;;;;1.05;0.95;;;;;;;;;;6174439;23;20080;-62
2023/11/09 06:48:30;;;;;;;0.65;0.65;;;;;;;;;;6173464;23;20025;-62
2023/11/09 06:51:24;;;;;;;1.10;0.75;;;;;;;;;;6174661;23;20052;-63
2023/11/09 06:54:17;;;;;;;0.73;0.73;;;;;;;;;;6174358;23;20525;-54
2023/11/09 06:57:05;;;;;;;0.65;0.60;;;;;;;;;;6174502;23;20083;-64
2023/11/09 06:59:59;;;;;;;1.67;0.90;;;;;;;;;;6173024;23;20048;-62
2023/11/09 07:02:47;;;;;;;0.50;0.50;;;;;;;;;;6173546;23;20025;-62
2023/11/09 07:05:39;;;;;;;0.63;0.63;;;;;;;;;;6173423;23;20025;-62
2023/11/09 07:08:28;;;;;;;0.60;0.60;;;;;;;;;;6173701;23;20394;-62
2023/11/09 07:11:20;;;;;;;0.70;0.70;;;;;;;;;;6172970;23;20025;-62
2023/11/09 07:14:07;;;;;;;8.32;1.02;;;;;;;;;;6173416;23;20025;-60
2023/11/09 07:17:01;;;;;;;1.75;0.60;;;;;;;;;;6172779;23;20408;-55
2023/11/09 07:19:48;;;;;;;1.02;0.52;;;;;;;;;;6173317;23;20091;-51
2023/11/09 07:22:43;;;;;;;0.50;0.50;;;;;;;;;;6173436;23;20025;-54
2023/11/09 07:25:31;;;;;;;3.30;0.70;;;;;;;;;;6174462;23;20029;-59
2023/11/09 07:28:24;;;;;;;1.20;0.52;;;;;;;;;;6174407;23;20033;-56
2023/11/09 07:31:10;;;;;;;0.57;0.57;;;;;;;;;;6172277;23;20024;-63
2023/11/09 07:34:05;;;;;;;0.93;0.90;;;;;;;;;;6172640;23;20029;-60
2023/11/09 07:36:52;;;;;;;0.40;0.40;;;;;;;;;;6173164;23;20021;-62
2023/11/09 07:39:45;;;;;;;0.52;0.50;;;;;;;;;;6172095;23;20035;-62
2023/11/09 07:42:32;;;;;;;0.50;0.50;;;;;;;;;;6172945;23;20079;-62
2023/11/09 07:45:26;;;;;;;1.25;0.40;;;;;;;;;;6173214;23;20017;-62
2023/11/09 07:48:23;;;;;;;0.50;0.50;;;;;;;;;;6173062;23;20453;-61
2023/11/09 07:51:23;;;;;;;0.52;0.52;;;;;;;;;;6174436;23;20017;-54
2023/11/09 07:54:09;;;;;;;0.40;0.40;;;;;;;;;;6173339;23;20493;-60
2023/11/09 07:57:02;;;;;;;1.42;0.60;;;;;;;;;;6175326;23;20083;-60
2023/11/09 07:59:49;;;;;;;0.60;0.60;;;;;;;;;;6174397;23;20029;-60
2023/11/09 08:02:43;;;;;;;1.50;0.73;;;;;;;;;;6174123;23;20581;-60
2023/11/09 08:05:32;;;;;;;0.47;0.47;;;;;;;;;;6174551;23;20024;-61
2023/11/09 08:08:24;;;;;;;2.50;0.57;;;;;;;;;;6174839;23;20025;-62
2023/11/09 08:11:19;;;;;;;0.90;0.90;;;;;;;;;;6174170;23;20533;-51
2023/11/09 08:14:12;;;;;;;0.60;0.60;;;;;;;;;;6174190;23;20021;-55
2023/11/09 08:17:08;;;;;;;0.70;0.50;;;;;;;;;;6173946;23;20021;-53
2023/11/09 08:20:01;;;;;;;1.95;0.30;;;;;;;;;;6173881;23;20025;-55
2023/11/09 08:22:54;;;;;;;0.40;0.40;;;;;;;;;;6173991;23;20033;-55
2023/11/09 08:25:41;;;;;;;2.78;0.60;;;;;;;;;;6175462;23;20049;-52
2023/11/09 08:28:35;;;;;;;1.00;0.45;;;;;;;;;;6174916;23;20029;-60
2023/11/09 08:31:33;;;;;;;1.10;0.32;;;;;;;;;;6174383;23;20398;-50
2023/11/09 08:34:17;;;;;;;0.30;0.30;;;;;;;;;;6173933;23;20060;-55
2023/11/09 08:37:10;;;;;;;0.52;0.30;;;;;;;;;;6174550;23;20467;-54
2023/11/09 08:39:58;;;;;;;0.40;0.40;;;;;;;;;;6173732;23;20471;-47
2023/11/09 08:42:53;;;;;;;0.40;0.32;;;;;;;;;;6175925;23;20032;-50
2023/11/09 08:45:39;;;;;;;0.40;0.40;;;;;;;;;;6173769;23;20063;-52
2023/11/09 08:48:40;;;;;;;0.68;0.38;;;;;;;;;;6174816;23;20021;-51
2023/11/09 08:51:34;;;;;;;0.80;0.40;;;;;;;;;;6174827;23;20028;-52
2023/11/09 08:54:28;;;;;;;0.35;0.28;;;;;;;;;;6174289;23;20355;-49
2023/11/09 08:57:15;;;;;;;0.63;0.43;;;;;;;;;;6173512;23;20337;-52
2023/11/09 09:00:11;;;;;;;1.70;0.32;;;;;;;;;;6173214;23;20080;-50
2023/11/09 09:02:56;;;;;;;0.40;0.40;;;;;;;;;;6173937;23;20029;-55
2023/11/09 09:05:55;;;;;;;0.17;0.17;;;;;;;;;;6174203;23;20051;-63
2023/11/09 09:08:40;;;;;;;0.40;0.40;;;;;;;;;;6173372;23;20079;-66
2023/11/09 09:11:36;;;;;;;0.35;0.32;;;;;;;;;;6173207;23;20471;-66
2023/11/09 09:14:22;;;;;;;0.45;0.30;;;;;;;;;;6173433;23;20029;-66
2023/11/09 09:17:16;;;;;;;0.40;0.35;;;;;;;;;;6172666;23;20075;-66
2023/11/09 09:20:04;;;;;;;0.57;0.38;;;;;;;;;;6173978;23;20029;-66
2023/11/09 09:22:59;;;;;;;3.40;0.50;;;;;;;;;;6175247;23;20024;-62
2023/11/09 09:25:48;;;;;;;0.90;0.40;;;;;;;;;;6174018;23;20017;-52
2023/11/09 09:28:47;;;;;;;2.30;0.28;;;;;;;;;;6174652;23;20487;-51
2023/11/09 09:31:33;;;;;;;0.40;0.30;;;;;;;;;;6173305;23;20025;-55
2023/11/09 09:34:29;;;;;;;0.28;0.28;;;;;;;;;;6174427;23;20039;-55
2023/11/09 09:37:18;;;;;;;0.90;0.40;;;;;;;;;;6173969;23;20021;-54
2023/11/09 09:40:19;;;;;;;0.30;0.30;;;;;;;;;;6171575;23;20020;-63
2023/11/09 09:43:19;;;;;;;0.95;0.40;;;;;;;;;;6174496;23;20091;-63
2023/11/09 09:46:12;;;;;;;1.40;0.20;;;;;;;;;;6173130;23;20037;-62
2023/11/09 09:49:17;;;;;;;0.60;0.25;;;;;;;;;;6174624;23;20100;-62
2023/11/09 09:52:02;;;;;;;0.60;0.40;;;;;;;;;;6173862;23;20088;-62
2023/11/09 09:54:56;;;;;;;1.83;0.35;;;;;;;;;;6174236;23;20017;-63
2023/11/09 09:57:44;;;;;;;1.02;0.40;;;;;;;;;;6173783;23;20033;-63
2023/11/09 10:00:38;;;;;;;1.27;0.60;;;;;;;;;;6172871;23;20021;-63
2023/11/09 10:03:25;;;;;;;0.30;0.30;;;;;;;;;;6175498;23;20024;-63
2023/11/09 10:06:21;;;;;;;2.08;0.50;;;;;;;;;;6174699;23;20100;-63
2023/11/09 10:09:07;;;;;;;0.75;0.40;;;;;;;;;;6172576;23;20029;-63
2023/11/09 10:12:00;;;;;;;0.43;0.40;;;;;;;;;;6172346;23;20021;-63
2023/11/09 10:14:53;;;;;;;2.00;0.40;;;;;;;;;;6172875;23;20024;-63
2023/11/09 10:17:48;;;;;;;0.85;0.30;;;;;;;;;;6172504;23;20028;-53
2023/11/09 10:20:34;;;;;;;1.48;0.60;;;;;;;;;;6173202;23;20312;-63
2023/11/09 10:23:28;;;;;;;2.40;0.40;;;;;;;;;;6173380;23;20076;-63
2023/11/09 10:26:16;;;;;;;1.38;0.40;;;;;;;;;;6174036;23;20025;-64
2023/11/09 10:29:13;;;;;;;1.85;0.15;;;;;;;;;;6173589;23;20028;-63
2023/11/09 10:32:00;;;;;;;2.55;0.40;;;;;;;;;;6172628;23;20079;-63
2023/11/09 10:34:51;;;;;;;1.65;0.43;;;;;;;;;;6174904;23;20526;-63
2023/11/09 10:37:40;;;;;;;2.20;0.40;;;;;;;;;;6172982;23;20070;-52
2023/11/09 10:40:34;;;;;;;3.60;0.60;;;;;;;;;;6172318;23;20321;-55
2023/11/09 10:43:49;;;;;;;2.00;0.80;;;;;;;;;;6174641;23;20550;-54
2023/11/09 10:46:42;;;;;;;3.80;0.88;;;;;;;;;;6172635;23;20024;-55
2023/11/09 10:49:44;;;;;;;2.63;0.60;;;;;;;;;;6173034;23;20029;-55
2023/11/09 10:52:35;;;;;;;3.80;0.80;;;;;;;;;;6172600;23;20079;-55
2023/11/09 10:55:23;;;;;;;4.30;0.70;;;;;;;;;;6173439;23;20024;-63
2023/11/09 10:58:20;;;;;;;2.35;0.52;;;;;;;;;;6173010;23;20126;-66
2023/11/09 11:01:10;;;;;;;4.28;0.60;;;;;;;;;;6173217;23;20357;-66
2023/11/09 11:04:08;;;;;;;4.13;0.90;;;;;;;;;;6175238;23;20053;-65
2023/11/09 11:06:56;;;;;;;1.33;0.50;;;;;;;;;;6173097;23;20132;-66
2023/11/09 11:09:51;;;;;;;5.38;0.93;;;;;;;;;;6172195;23;20021;-66
2023/11/09 11:12:37;;;;;;;4.18;0.70;;;;;;;;;;6172998;23;20024;-55
2023/11/09 11:15:42;;;;;;;4.93;1.23;;;;;;;;;;6173479;23;20023;-60
2023/11/09 11:18:49;;;;;;;2.28;0.88;;;;;;;;;;6170883;23;20609;-60
2023/11/09 11:21:45;;;;;;;9.70;0.90;;;;;;;;;;6173087;23;20530;-60
2023/11/09 11:24:45;;;;;;;3.47;0.98;;;;;;;;;;6176302;23;20128;-60
2023/11/09 11:27:44;;;;;;;3.15;0.95;;;;;;;;;;6175371;23;20025;-60
2023/11/09 11:30:39;;;;;;;10.07;1.15;;;;;;;;;;6174036;23;20025;-54
2023/11/09 11:33:25;;;;;;;3.53;0.97;;;;;;;;;;6172640;23;20021;-55
2023/11/09 11:36:26;;;;;;;3.88;0.88;;;;;;;;;;6174257;23;20995;-55
2023/11/09 11:39:30;;;;;;;6.00;1.45;;;;;;;;;;6175456;23;20033;-55
2023/11/09 11:42:27;;;;;;;7.72;2.00;;;;;;;;;;6175182;23;20025;-53
2023/11/09 11:45:14;;;;;;;8.00;1.63;;;;;;;;;;6173494;23;20092;-55
2023/11/09 11:48:12;;;;;;;10.45;1.95;;;;;;;;;;6175560;23;20024;-53
2023/11/09 11:51:10;;;;;;;5.63;1.58;;;;;;;;;;6143057;23;20026;-52
2023/11/09 11:54:12;;;;;;;17.77;1.95;;;;;;;;;;6144446;23;20029;-54
2023/11/09 11:56:57;;;;;;;9.05;1.90;;;;;;;;;;6144862;23;20051;-54
2023/11/09 12:00:10;;;;;;;7.10;1.70;;;;;;;;;;6144827;23;20025;-55
2023/11/09 12:02:57;;;;;;;8.15;2.42;;;;;;;;;;6145558;23;20542;-54
2023/11/09 12:05:53;;;;;;;20.27;2.47;;;;;;;;;;6144251;23;20032;-54
2023/11/09 12:08:53;;;;;;;;;;;;;;;;;;6146238;23;20022;-54
2023/11/09 12:11:47;;;;;;;17.70;2.40;;;;;;;;;;6145239;23;19920;-56
2023/11/09 12:14:34;;;;;;;7.72;1.80;;;;;;;;;;6145261;23;20025;-51
2023/11/09 12:17:28;;;;;;;11.48;2.10;;;;;;;;;;6146412;23;20132;-54
2023/11/09 12:20:17;;;;;;;12.45;2.38;;;;;;;;;;6145382;23;20475;-54
2023/11/09 12:23:14;;;;;;;15.20;2.78;;;;;;;;;;6146588;23;20028;-49
2023/11/09 12:26:01;;;;;;;11.05;2.55;;;;;;;;;;6144965;23;20022;-65
2023/11/09 12:28:53;;;;;;;13.18;2.40;;;;;;;;;;6144183;23;20025;-65
2023/11/09 12:31:41;;;;;;;14.45;2.53;;;;;;;;;;6144985;23;20045;-65
2023/11/09 12:34:39;;;;;;;10.30;2.78;;;;;;;;;;6145667;23;20352;-65
2023/11/09 12:37:36;;;;;;;18.23;2.50;;;;;;;;;;6145781;23;20025;-54
2023/11/09 12:40:19;;;;;;;23.90;2.78;;;;;;;;;;6143730;23;20109;-61
2023/11/09 12:43:12;;;;;;;8.77;2.53;;;;;;;;;;6145582;23;20029;-61
2023/11/09 12:46:03;;;;;;;16.15;2.13;;;;;;;;;;6142464;23;20053;-61
2023/11/09 12:49:10;;;;;;;12.27;2.20;;;;;;;;;;6152227;23;20032;-61
2023/11/09 12:52:07;;;;;;;25.55;3.00;;;;;;;;;;6173515;23;20083;-61
2023/11/09 12:55:07;;;;;;;8.15;2.75;;;;;;;;;;6174590;23;20033;-63
2023/11/09 12:57:54;;;;;;;16.80;3.00;;;;;;;;;;6171400;23;20657;-63
2023/11/09 13:00:48;;;;;;;13.50;3.75;;;;;;;;;;6173651;23;20028;-63
2023/11/09 13:03:35;;;;;;;28.33;3.80;;;;;;;;;;6173899;23;20123;-64
2023/11/09 13:06:31;;;;;;;28.45;3.10;;;;;;;;;;6173394;23;20096;-63
2023/11/09 13:17:50;;;;;;;14.20;2.78;;;;;;;;;;6173624;23;20024;-52
2023/11/09 13:20:37;;;;;;;24.92;3.72;;;;;;;;;;6173874;23;20025;-55
2023/11/09 13:23:32;;;;;;;24.38;3.58;;;;;;;;;;6175685;23;20083;-55
2023/11/09 13:26:27;;;;;;;29.60;4.70;;;;;;;;;;6173915;23;20025;-54
2023/11/09 13:29:14;;;;;;;16.00;2.97;;;;;;;;;;6173914;23;20403;-55
2023/11/09 13:32:00;;;;;;;19.92;3.28;;;;;;;;;;6173810;23;20029;-62
2023/11/09 13:37:58;;;;;;;25.60;4.32;;;;;;;;;;6139329;23;20055;-61
2023/11/09 13:40:46;;;;;;;22.48;4.68;;;;;;;;;;6174361;23;20040;-60
2023/11/09 13:43:34;;;;;;;23.70;4.20;;;;;;;;;;6174211;23;20021;-61
2023/11/09 13:46:27;;;;;;;32.58;4.88;;;;;;;;;;6171697;23;20509;-60
2023/11/09 13:49:32;;;;;;;24.73;5.18;;;;;;;;;;6174578;23;20022;-63
2023/11/09 13:52:38;;;;;;;20.73;4.18;;;;;;;;;;6173420;23;20028;-65
2023/11/09 13:55:47;;;;;;;23.35;4.38;;;;;;;;;;6173972;23;20463;-65
2023/11/09 13:58:31;;;;;;;29.38;3.97;;;;;;;;;;6171743;23;20029;-67
2023/11/09 14:01:31;;;;;;;20.33;4.30;;;;;;;;;;6173825;23;20028;-66
2023/11/09 14:04:20;;;;;;;28.05;4.32;;;;;;;;;;6173255;23;20029;-65
2023/11/09 14:07:13;;;;;;;23.55;3.92;;;;;;;;;;6171979;23;20560;-55
2023/11/09 14:10:09;;;;;;;29.58;6.05;;;;;;;;;;6174811;23;20079;-66
2023/11/09 14:12:53;;;;;;;46.85;5.88;;;;;;;;;;6172299;23;20024;-56
2023/11/09 14:15:49;;;;;;;27.92;4.70;;;;;;;;;;6172782;23;20023;-55
2023/11/09 14:21:23;;;;;;;44.10;7.45;;;;;;;;;;6172647;23;20033;-56
2023/11/09 14:24:11;;;;;;;154.77;10.82;;;;;;;;;;6174405;23;20017;-51
2023/11/09 14:27:05;;;;;;;57.85;5.47;;;;;;;;;;6172051;23;20028;-55
2023/11/09 14:29:56;;;;;;;41.67;4.50;;;;;;;;;;6174332;23;20510;-63
2023/11/09 14:32:47;;;;;;;21.65;4.78;;;;;;;;;;6173337;23;20029;-63
2023/11/09 14:35:38;;;;;;;26.33;5.30;;;;;;;;;;6173860;23;20017;-63
2023/11/09 14:38:29;;;;;;;27.25;5.35;;;;;;;;;;6173924;23;20029;-63
2023/11/09 14:41:17;;;;;;;36.00;6.63;;;;;;;;;;6169750;23;20541;-63
2023/11/09 14:44:12;;;;;;;39.08;5.88;;;;;;;;;;6173961;23;20056;-62
2023/11/09 14:46:59;;;;;;;39.58;6.78;;;;;;;;;;6171494;23;20032;-56
2023/11/09 14:49:53;;;;;;;66.10;7.28;;;;;;;;;;6172990;23;20414;-63
2023/11/09 14:55:33;;;;;;;207.95;14.15;;;;;;;;;;6174203;23;20100;-63
2023/11/09 14:58:33;;;;;;;46.85;7.75;;;;;;;;;;6173232;23;20095;-63
2023/11/09 15:01:18;;;;;;;57.88;7.50;;;;;;;;;;6169028;23;20056;-63
2023/11/09 15:04:15;;;;;;;71.72;11.23;;;;;;;;;;6173050;23;20028;-63
2023/11/09 15:07:00;;;;;;;41.58;7.60;;;;;;;;;;6171861;23;20035;-63
2023/11/09 15:09:57;;;;;;;81.40;9.18;;;;;;;;;;6173054;23;20716;-63
2023/11/09 15:12:45;;;;;;;84.07;8.98;;;;;;;;;;6171750;23;20061;-63
2023/11/09 15:15:32;;;;;;;37.65;8.25;;;;;;;;;;6173818;23;20024;-63
2023/11/09 15:18:26;;;;;;;555.70;28.13;;;;;;;;;;6173478;23;20123;-63
2023/11/09 15:21:15;;;;;;;496.63;31.63;;;;;;;;;;6172954;23;20031;-65
2023/11/09 15:24:10;;;;;;;642.72;31.75;;;;;;;;;;6172487;23;20029;-61
2023/11/09 15:26:58;;;;;;;261.40;14.07;;;;;;;;;;6173199;23;20021;-61
2023/11/09 15:29:51;;;;;;;255.48;17.90;;;;;;;;;;6173854;23;20411;-61
2023/11/09 15:32:39;;;;;;;212.85;14.55;;;;;;;;;;6171367;23;20025;-61
2023/11/09 15:35:33;;;;;;;87.00;12.50;;;;;;;;;;6172123;23;20028;-61
2023/11/09 15:38:21;;;;;;;472.10;26.38;;;;;;;;;;6172843;23;20568;-61
2023/11/09 15:41:17;;;;;;;224.60;15.75;;;;;;;;;;6173020;23;20083;-61
2023/11/09 15:44:04;;;;;;;26.85;8.35;;;;;;;;;;6173653;23;20024;-54
2023/11/09 16:05:22;;;;;;;37.55;8.70;;;;;;;;;;6167118;23;20667;-51
2023/11/09 16:08:04;;;;;;;133.15;10.88;;;;;;;;;;6141513;23;20038;-55
2023/11/09 16:10:41;;;;;;;281.25;18.42;;;;;;;;;;6113555;23;20033;-55
2023/11/09 16:13:27;;;;;;;591.28;33.72;;;;;;;;;;6146651;23;20573;-54
2023/11/09 16:16:24;;;;;;;33.85;6.57;;;;;;;;;;6145432;23;20061;-63
2023/11/09 16:19:09;;;;;;;37.97;7.38;;;;;;;;;;6141723;23;20018;-56
2023/11/09 16:22:04;;;;;;;25.83;8.07;;;;;;;;;;6145147;23;20025;-53
2023/11/09 16:24:51;;;;;;;48.55;7.55;;;;;;;;;;6141436;23;20028;-54
2023/11/09 16:27:49;;;;;;;28.73;6.70;;;;;;;;;;6145753;23;20093;-52
2023/11/09 16:30:40;;;;;;;31.52;6.53;;;;;;;;;;6145519;23;20029;-56
2023/11/09 16:33:35;;;;;;;24.48;6.68;;;;;;;;;;6145612;23;20022;-55
2023/11/09 16:36:22;;;;;;;55.00;8.65;;;;;;;;;;6145413;23;20018;-62
2023/11/09 16:39:16;;;;;;;24.00;6.82;;;;;;;;;;6143246;23;20021;-64
2023/11/09 16:42:03;;;;;;;26.25;9.13;;;;;;;;;;6145671;23;20026;-64
2023/11/09 16:44:57;;;;;;;38.28;8.15;;;;;;;;;;6146968;23;20084;-64
2023/11/09 16:47:47;;;;;;;22.02;6.75;;;;;;;;;;6144382;23;20619;-63
2023/11/09 16:50:40;;;;;;;30.55;8.35;;;;;;;;;;6143963;23;20029;-64
2023/11/09 16:53:27;;;;;;;33.10;8.90;;;;;;;;;;6145688;23;20029;-61
2023/11/09 16:56:21;;;;;;;654.05;39.30;;;;;;;;;;6144313;23;20076;-63
2023/11/09 16:59:09;;;;;;;164.07;15.50;;;;;;;;;;6146571;23;20280;-63
2023/11/09 17:02:04;;;;;;;249.35;28.40;;;;;;;;;;6145367;23;20337;-63
2023/11/09 17:04:31;;;;;;;311.38;30.58;;;;;;;;;;6144377;23;20033;-63
2023/11/09 17:07:32;;;;;;;53.08;13.05;;;;;;;;;;6173168;23;20028;-62
2023/11/09 17:10:18;;;;;;;72.07;16.88;;;;;;;;;;6173251;23;20021;-62
2023/11/09 17:13:12;;;;;;;64.72;14.00;;;;;;;;;;6175377;23;20039;-62
2023/11/09 17:16:00;;;;;;;56.75;14.13;;;;;;;;;;6171130;23;20028;-56
2023/11/09 17:18:33;;;;;;;56.28;11.60;;;;;;;;;;6171905;23;20518;-53
2023/11/09 17:21:22;;;;;;;54.03;11.00;;;;;;;;;;6170953;23;20036;-55
2023/11/09 17:24:14;;;;;;;55.53;11.40;;;;;;;;;;6173445;23;20036;-55
2023/11/09 17:27:02;;;;;;;358.05;28.05;;;;;;;;;;6173243;23;20017;-54
2023/11/09 17:29:58;;;;;;;136.98;17.02;;;;;;;;;;6172576;23;20017;-65
2023/11/09 17:32:43;;;;;;;135.30;13.50;;;;;;;;;;6172267;23;20537;-56
2023/11/09 17:35:36;;;;;;;159.52;26.17;;;;;;;;;;6173992;23;20097;-55
2023/11/09 17:38:25;;;;;;;245.75;29.50;;;;;;;;;;6172690;23;20084;-55
2023/11/09 17:41:18;;;;;;;578.28;34.63;;;;;;;;;;6174266;23;20071;-57
2023/11/09 17:44:07;;;;;;;515.70;29.92;;;;;;;;;;6171499;23;20031;-51